createdAt,value
2022-08-03T00:00:26.166Z,88.21
2022-08-03T00:02:52.804Z,88.96
2022-08-03T00:05:19.412Z,89.01
2022-08-03T00:07:45.941Z,89.35
2022-08-03T00:10:15.218Z,89.01
2022-08-03T00:12:41.763Z,89.21
2022-08-03T00:15:11.102Z,89.11
2022-08-03T00:17:52.423Z,89.53
2022-08-03T00:20:23.249Z,89.46
2022-08-03T00:22:50.368Z,89.87
2022-08-03T00:25:17.614Z,90.11
2022-08-03T00:27:44.167Z,90.02
2022-08-03T00:30:11.029Z,90.18
2022-08-03T00:32:42.174Z,91.38
2022-08-03T00:35:18.236Z,91.74
2022-08-03T00:37:59.685Z,91.50
2022-08-03T00:40:26.658Z,92.28
2022-08-03T00:42:58.048Z,92.33
2022-08-03T00:45:33.264Z,91.78
2022-08-03T00:48:00.277Z,91.94
2022-08-03T00:50:28.857Z,92.73
2022-08-03T00:52:58.063Z,93.07
2022-08-03T00:55:25.764Z,93.13
2022-08-03T00:57:52.632Z,93.24
2022-08-03T01:00:23.423Z,92.16
2022-08-03T01:02:50.502Z,91.32
2022-08-03T01:05:17.860Z,91.15
2022-08-03T01:08:11.927Z,90.86
2022-08-03T01:10:50.319Z,90.32
2022-08-03T01:14:03.929Z,90.00
2022-08-03T01:16:36.576Z,90.04
2022-08-03T01:19:28.406Z,90.49
2022-08-03T01:22:16.356Z,90.34
2022-08-03T01:25:28.088Z,90.07
2022-08-03T01:28:12.770Z,89.67
2022-08-03T01:30:43.698Z,89.60
2022-08-03T01:33:17.853Z,89.41
2022-08-03T01:35:54.346Z,89.68
2022-08-03T01:38:34.397Z,89.52
2022-08-03T01:41:07.369Z,89.59
2022-08-03T01:44:27.264Z,88.82
2022-08-03T01:46:25.705Z,88.16
2022-08-03T01:48:54.877Z,88.23
2022-08-03T01:51:22.636Z,88.05
2022-08-03T01:53:51.540Z,87.61
2022-08-03T01:56:20.298Z,87.55
2022-08-03T01:58:49.178Z,87.25
2022-08-03T02:01:17.123Z,88.02
2022-08-03T02:03:59.982Z,87.73
2022-08-03T02:06:59.763Z,88.19
2022-08-03T02:09:20.570Z,88.44
2022-08-03T02:11:49.001Z,88.09
2022-08-03T02:14:16.627Z,88.50
2022-08-03T02:16:45.928Z,89.15
2022-08-03T02:19:13.803Z,89.43
2022-08-03T02:21:57.387Z,89.71
2022-08-03T02:24:28.867Z,91.25
2022-08-03T02:26:57.552Z,91.39
2022-08-03T02:29:40.285Z,91.44
2022-08-03T02:32:12.379Z,91.55
2022-08-03T02:34:42.198Z,91.52
2022-08-03T02:37:11.914Z,91.73
2022-08-03T02:39:41.015Z,94.73
2022-08-03T02:42:13.504Z,95.39
2022-08-03T02:44:41.569Z,94.72
2022-08-03T02:47:10.870Z,93.70
2022-08-03T02:49:50.527Z,93.17
2022-08-03T02:52:20.708Z,93.23
2022-08-03T02:54:51.141Z,93.62
2022-08-03T02:57:19.398Z,94.52
2022-08-03T02:59:47.129Z,93.87
2022-08-03T03:02:16.022Z,93.79
2022-08-03T03:05:52.409Z,94.02
2022-08-03T03:07:35.350Z,94.22
2022-08-03T03:10:18.967Z,94.41
2022-08-03T03:12:46.808Z,95.06
2022-08-03T03:15:13.342Z,96.17
2022-08-03T03:17:41.316Z,96.92
2022-08-03T03:20:08.900Z,97.57
2022-08-03T03:22:36.133Z,97.79
2022-08-03T03:25:02.996Z,98.37
2022-08-03T03:27:30.515Z,98.71
2022-08-03T03:29:59.061Z,100.00
2022-08-03T03:32:28.004Z,100.00
2022-08-03T03:34:55.932Z,100.00
2022-08-03T03:37:22.477Z,100.00
2022-08-03T03:39:48.952Z,100.00
2022-08-03T03:42:15.590Z,100.00
2022-08-03T03:44:42.338Z,100.00
2022-08-03T03:47:08.928Z,100.00
2022-08-03T03:49:36.383Z,100.00
2022-08-03T03:52:02.972Z,100.00
2022-08-03T03:54:43.300Z,100.00
2022-08-03T03:57:13.105Z,100.00
2022-08-03T03:59:43.736Z,100.00
2022-08-03T04:02:11.550Z,100.00
2022-08-03T04:04:57.957Z,100.00
2022-08-03T04:07:45.058Z,100.00
2022-08-03T04:10:41.794Z,100.00
2022-08-03T04:13:10.926Z,100.00
2022-08-03T04:15:39.957Z,100.00
2022-08-03T04:18:09.769Z,100.00
2022-08-03T04:20:38.791Z,100.00
2022-08-03T04:23:13.604Z,100.00
2022-08-03T04:25:44.390Z,100.00
2022-08-03T04:28:30.652Z,100.00
2022-08-03T04:30:59.755Z,100.00
2022-08-03T04:33:29.631Z,100.00
2022-08-03T04:36:01.292Z,100.00
2022-08-03T04:38:31.687Z,100.00
2022-08-03T04:41:00.456Z,100.00
2022-08-03T04:43:28.494Z,100.00
2022-08-03T04:45:55.859Z,100.00
2022-08-03T04:48:22.824Z,100.00
2022-08-03T04:50:49.389Z,100.00
2022-08-03T04:53:16.501Z,100.00
2022-08-03T04:55:43.103Z,100.00
2022-08-03T04:58:09.593Z,100.00
2022-08-03T05:00:36.213Z,100.00
2022-08-03T05:03:02.794Z,100.00
2022-08-03T05:05:34.621Z,100.00
2022-08-03T05:08:15.620Z,99.84
2022-08-03T05:10:42.216Z,98.77
2022-08-03T05:13:12.885Z,97.66
2022-08-03T05:15:42.998Z,96.46
2022-08-03T05:18:13.860Z,96.38
2022-08-03T05:20:40.834Z,95.83
2022-08-03T05:23:07.372Z,95.66
2022-08-03T05:25:33.828Z,95.75
2022-08-03T05:28:00.376Z,96.50
2022-08-03T05:30:33.696Z,97.57
2022-08-03T05:33:02.165Z,97.40
2022-08-03T05:36:01.805Z,97.10
2022-08-03T05:38:23.749Z,96.41
2022-08-03T05:40:56.824Z,96.97
2022-08-03T05:43:24.705Z,96.89
2022-08-03T05:46:11.673Z,96.52
2022-08-03T05:48:37.954Z,96.52
2022-08-03T05:51:07.516Z,96.25
2022-08-03T05:53:34.790Z,94.45
2022-08-03T05:56:03.490Z,93.04
2022-08-03T05:58:41.845Z,92.02
2022-08-03T06:01:08.439Z,91.11
2022-08-03T06:03:34.997Z,90.83
2022-08-03T06:06:01.583Z,90.15
2022-08-03T06:08:28.164Z,92.90
2022-08-03T06:10:54.849Z,92.62
2022-08-03T06:13:22.016Z,90.67
2022-08-03T06:15:48.560Z,89.93
2022-08-03T06:18:15.053Z,88.23
2022-08-03T06:20:41.614Z,88.90
2022-08-03T06:23:08.150Z,89.27
2022-08-03T06:25:43.043Z,89.59
2022-08-03T06:28:15.074Z,88.86
2022-08-03T06:30:50.471Z,89.52
2022-08-03T06:33:17.133Z,87.26
2022-08-03T06:35:45.234Z,87.83
2022-08-03T06:38:12.957Z,86.97
2022-08-03T06:40:42.478Z,87.89
2022-08-03T06:43:12.864Z,87.45
2022-08-03T06:45:42.511Z,88.08
2022-08-03T06:48:11.433Z,88.36
2022-08-03T06:50:39.507Z,90.08
2022-08-03T06:53:06.219Z,88.76
2022-08-03T06:55:33.099Z,87.80
2022-08-03T06:57:59.766Z,88.02
2022-08-03T07:00:30.886Z,88.65
2022-08-03T07:02:58.504Z,86.68
2022-08-03T07:05:25.364Z,85.64
2022-08-03T07:07:55.782Z,85.08
2022-08-03T07:10:22.146Z,82.22
2022-08-03T07:12:55.895Z,83.35
2022-08-03T07:15:55.222Z,81.60
2022-08-03T07:18:10.219Z,80.05
2022-08-03T07:20:36.725Z,79.18
2022-08-03T07:23:03.349Z,80.47
2022-08-03T07:25:29.790Z,79.91
2022-08-03T07:27:56.341Z,79.03
2022-08-03T07:30:23.172Z,78.06
2022-08-03T07:32:50.573Z,78.02
2022-08-03T07:35:24.477Z,78.56
2022-08-03T07:37:54.656Z,78.32
2022-08-03T07:40:22.412Z,76.33
2022-08-03T07:42:52.269Z,74.84
2022-08-03T07:45:21.409Z,72.93
2022-08-03T07:47:53.733Z,72.77
2022-08-03T07:50:20.673Z,72.77
2022-08-03T07:52:50.373Z,72.08
2022-08-03T07:55:19.476Z,71.48
2022-08-03T07:57:46.263Z,71.54
2022-08-03T08:00:19.151Z,71.12
2022-08-03T08:02:46.016Z,70.88
2022-08-03T08:05:13.044Z,71.23
2022-08-03T08:07:40.224Z,71.93
2022-08-03T08:10:10.025Z,72.15
2022-08-03T08:12:38.830Z,71.77
2022-08-03T08:15:07.161Z,70.53
2022-08-03T08:17:49.256Z,68.10
2022-08-03T08:20:28.651Z,69.57
2022-08-03T08:23:03.561Z,69.16
2022-08-03T08:25:37.459Z,69.34
2022-08-03T08:28:29.062Z,65.90
2022-08-03T08:30:51.063Z,67.35
2022-08-03T08:33:22.768Z,67.14
2022-08-03T08:35:51.885Z,65.88
2022-08-03T08:38:18.362Z,66.45
2022-08-03T08:40:45.117Z,66.02
2022-08-03T08:43:11.660Z,64.98
2022-08-03T08:45:38.650Z,65.00
2022-08-03T08:48:08.447Z,68.05
2022-08-03T08:50:37.295Z,66.60
2022-08-03T08:53:07.104Z,65.25
2022-08-03T08:55:58.940Z,65.20
2022-08-03T08:58:24.473Z,63.71
2022-08-03T09:00:51.554Z,64.14
2022-08-03T09:03:29.362Z,64.42
2022-08-03T09:05:58.981Z,62.88
2022-08-03T09:08:25.986Z,63.11
2022-08-03T09:10:52.686Z,62.76
2022-08-03T09:13:19.351Z,63.25
2022-08-03T09:15:59.830Z,62.63
2022-08-03T09:18:32.313Z,61.75
2022-08-03T09:21:36.010Z,62.73
2022-08-03T09:24:06.185Z,62.23
2022-08-03T09:26:37.111Z,60.61
2022-08-03T09:29:14.943Z,63.18
2022-08-03T09:31:44.669Z,61.53
2022-08-03T09:34:14.213Z,60.07
2022-08-03T09:36:46.229Z,60.09
2022-08-03T09:39:15.278Z,61.49
2022-08-03T09:41:47.526Z,58.31
2022-08-03T09:44:24.986Z,58.69
2022-08-03T09:46:56.108Z,58.98
2022-08-03T09:49:22.968Z,55.85
2022-08-03T09:52:33.019Z,57.18
2022-08-03T09:54:36.590Z,58.81
2022-08-03T09:57:03.211Z,59.00
2022-08-03T09:59:31.231Z,55.35
2022-08-03T10:01:59.756Z,54.70
2022-08-03T10:04:26.732Z,54.62
2022-08-03T10:07:10.062Z,53.69
2022-08-03T10:09:37.598Z,54.01
2022-08-03T10:12:09.162Z,53.77
2022-08-03T10:14:38.258Z,51.78
2022-08-03T10:17:04.839Z,51.80
2022-08-03T10:19:31.340Z,52.94
2022-08-03T10:22:03.296Z,49.84
2022-08-03T10:24:34.605Z,52.24
2022-08-03T10:27:08.171Z,52.72
2022-08-03T10:29:39.668Z,51.48
2022-08-03T10:32:17.478Z,50.49
2022-08-03T10:34:45.057Z,51.45
2022-08-03T10:37:14.341Z,51.33
2022-08-03T10:39:53.467Z,51.55
2022-08-03T10:42:24.887Z,49.34
2022-08-03T10:45:18.102Z,49.54
2022-08-03T10:47:46.560Z,50.51
2022-08-03T10:50:13.322Z,50.01
2022-08-03T10:53:03.890Z,52.65
2022-08-03T10:55:59.338Z,48.69
2022-08-03T10:58:37.213Z,46.95
2022-08-03T11:01:13.526Z,47.25
2022-08-03T11:03:52.250Z,50.57
2022-08-03T11:06:20.737Z,48.56
2022-08-03T11:08:48.845Z,48.09
2022-08-03T11:11:18.413Z,49.71
2022-08-03T11:14:07.582Z,48.95
2022-08-03T11:16:48.481Z,47.69
2022-08-03T11:19:17.813Z,47.89
2022-08-03T11:21:50.643Z,46.18
2022-08-03T11:24:51.270Z,45.57
2022-08-03T11:27:19.806Z,47.28
2022-08-03T11:30:00.573Z,46.09
2022-08-03T11:32:46.565Z,45.22
2022-08-03T11:35:22.520Z,44.39
2022-08-03T11:38:04.381Z,45.88
2022-08-03T11:40:53.547Z,45.26
2022-08-03T11:43:30.661Z,45.48
2022-08-03T11:46:28.154Z,43.06
2022-08-03T11:49:09.856Z,45.00
2022-08-03T11:51:37.855Z,44.81
2022-08-03T11:54:06.540Z,44.05
2022-08-03T11:56:49.972Z,43.21
2022-08-03T11:59:21.681Z,44.79
2022-08-03T12:01:49.462Z,44.81
2022-08-03T12:04:16.354Z,44.33
2022-08-03T12:06:58.609Z,45.86
2022-08-03T12:09:25.111Z,45.44
2022-08-03T12:12:00.552Z,44.36
2022-08-03T12:14:50.665Z,45.70
2022-08-03T12:17:15.964Z,46.06
2022-08-03T12:19:43.840Z,46.98
2022-08-03T12:22:10.394Z,45.42
2022-08-03T12:24:41.994Z,45.35
2022-08-03T12:27:08.508Z,45.97
2022-08-03T12:29:35.173Z,44.30
2022-08-03T12:32:01.758Z,44.14
2022-08-03T12:34:48.363Z,41.90
2022-08-03T12:37:19.280Z,43.08
2022-08-03T12:40:02.982Z,42.00
2022-08-03T12:42:38.845Z,41.66
2022-08-03T12:45:37.825Z,42.21
2022-08-03T12:48:09.203Z,42.25
2022-08-03T12:50:37.609Z,42.31
2022-08-03T12:53:08.898Z,41.68
2022-08-03T12:55:57.183Z,43.34
2022-08-03T12:58:36.976Z,42.00
2022-08-03T13:01:09.197Z,42.30
2022-08-03T13:03:45.785Z,42.58
2022-08-03T13:06:18.922Z,41.88
2022-08-03T13:08:47.930Z,41.86
2022-08-03T13:11:50.667Z,42.63
2022-08-03T13:14:13.486Z,41.37
2022-08-03T13:16:45.802Z,41.64
2022-08-03T13:19:15.544Z,42.33
2022-08-03T13:21:53.739Z,42.01
2022-08-03T13:24:30.507Z,40.61
2022-08-03T13:26:58.153Z,41.15
2022-08-03T13:29:24.735Z,39.96
2022-08-03T13:31:51.646Z,39.79
2022-08-03T13:34:22.965Z,39.47
2022-08-03T13:37:08.328Z,38.82
2022-08-03T13:39:57.545Z,38.78
2022-08-03T13:42:22.791Z,39.37
2022-08-03T13:44:49.448Z,39.72
2022-08-03T13:47:16.157Z,38.91
2022-08-03T13:49:59.475Z,39.19
2022-08-03T13:52:27.546Z,39.19
2022-08-03T13:54:54.089Z,37.57
2022-08-03T13:58:05.728Z,37.28
2022-08-03T14:00:08.035Z,36.20
2022-08-03T14:02:34.542Z,37.59
2022-08-03T14:05:01.050Z,38.39
2022-08-03T14:07:27.540Z,38.82
2022-08-03T14:09:54.041Z,38.61
2022-08-03T14:12:20.503Z,39.67
2022-08-03T14:14:46.987Z,40.04
2022-08-03T14:17:13.478Z,39.60
2022-08-03T14:19:53.218Z,40.03
2022-08-03T14:22:21.496Z,38.73
2022-08-03T14:24:48.081Z,38.63
2022-08-03T14:27:16.291Z,36.82
2022-08-03T14:29:42.745Z,37.88
2022-08-03T14:32:12.883Z,36.72
2022-08-03T14:34:40.383Z,35.75
2022-08-03T14:37:07.120Z,36.74
2022-08-03T14:42:20.447Z,37.17
2022-08-03T14:44:48.000Z,37.29
2022-08-03T14:47:14.767Z,37.46
2022-08-03T14:50:31.915Z,37.51
2022-08-03T14:52:28.249Z,37.02
2022-08-03T14:54:54.754Z,36.82
2022-08-03T14:57:21.561Z,37.13
2022-08-03T14:59:55.561Z,36.05
2022-08-03T15:02:24.545Z,36.79
2022-08-03T15:04:51.540Z,36.33
2022-08-03T15:07:18.482Z,36.37
2022-08-03T15:09:45.092Z,36.48
2022-08-03T15:12:11.641Z,36.03
2022-08-03T15:14:39.088Z,35.82
2022-08-03T15:17:06.173Z,35.68
2022-08-03T15:20:03.518Z,35.36
2022-08-03T15:22:20.673Z,35.50
2022-08-03T15:24:51.305Z,34.94
2022-08-03T15:27:17.905Z,34.90
2022-08-03T15:30:04.916Z,35.05
2022-08-03T15:32:30.966Z,34.56
2022-08-03T15:34:57.438Z,34.22
2022-08-03T15:37:25.605Z,34.71
2022-08-03T15:39:59.345Z,34.15
2022-08-03T15:42:30.592Z,34.71
2022-08-03T15:44:57.058Z,33.94
2022-08-03T15:47:23.609Z,34.87
2022-08-03T15:49:50.062Z,35.35
2022-08-03T15:52:16.594Z,35.22
2022-08-03T15:54:43.137Z,36.18
2022-08-03T15:57:09.807Z,36.78
2022-08-03T15:59:36.616Z,36.82
2022-08-03T16:02:03.766Z,36.24
2022-08-03T16:04:30.259Z,35.89
2022-08-03T16:06:56.742Z,35.29
2022-08-03T16:09:43.113Z,35.50
2022-08-03T16:12:14.548Z,35.66
2022-08-03T16:14:51.804Z,35.79
2022-08-03T16:17:20.355Z,36.13
2022-08-03T16:19:47.029Z,36.51
2022-08-03T16:22:14.550Z,36.08
2022-08-03T16:24:41.271Z,35.94
2022-08-03T16:27:17.338Z,35.78
2022-08-03T16:29:44.188Z,35.88
2022-08-03T16:32:11.098Z,35.69
2022-08-03T16:34:39.232Z,35.85
2022-08-03T16:37:35.355Z,35.98
2022-08-03T16:39:53.479Z,35.60
2022-08-03T16:42:19.953Z,35.27
2022-08-03T16:44:46.470Z,35.69
2022-08-03T16:47:22.239Z,35.35
2022-08-03T16:49:53.890Z,35.67
2022-08-03T16:52:23.697Z,35.64
2022-08-03T16:54:53.693Z,35.60
2022-08-03T16:57:55.787Z,35.76
2022-08-03T17:00:34.222Z,36.21
2022-08-03T17:03:03.881Z,36.61
2022-08-03T17:05:43.712Z,36.51
2022-08-03T17:08:14.614Z,36.51
2022-08-03T17:10:45.154Z,36.54
2022-08-03T17:13:22.004Z,36.40
2022-08-03T17:16:00.873Z,37.14
2022-08-03T17:18:34.064Z,36.81
2022-08-03T17:21:05.742Z,36.90
2022-08-03T17:23:42.233Z,36.82
2022-08-03T17:26:21.079Z,36.95
2022-08-03T17:28:57.663Z,37.16
2022-08-03T17:31:31.740Z,37.12
2022-08-03T17:34:01.837Z,37.48
2022-08-03T17:39:23.535Z,37.42
2022-08-03T17:42:00.709Z,37.45
2022-08-03T17:44:33.157Z,37.43
2022-08-03T17:47:08.625Z,38.28
2022-08-03T17:49:40.058Z,38.57
2022-08-03T17:52:27.880Z,38.84
2022-08-03T17:55:55.587Z,38.87
2022-08-03T17:58:11.521Z,39.23
2022-08-03T18:00:59.696Z,39.71
2022-08-03T18:03:58.357Z,40.28
2022-08-03T18:06:31.626Z,40.44
2022-08-03T18:09:04.708Z,40.60
2022-08-03T18:11:35.710Z,40.98
2022-08-03T18:14:23.855Z,41.15
2022-08-03T18:17:00.853Z,41.19
2022-08-03T18:20:01.352Z,41.57
2022-08-03T18:22:21.915Z,42.09
2022-08-03T18:24:52.649Z,42.55
2022-08-03T18:27:21.233Z,42.68
2022-08-03T18:29:49.510Z,43.75
2022-08-03T18:32:17.231Z,45.73
2022-08-03T18:34:53.433Z,46.22
2022-08-03T18:37:26.021Z,47.32
2022-08-03T18:39:55.674Z,47.73
2022-08-03T18:42:26.499Z,48.25
2022-08-03T18:44:56.223Z,48.19
2022-08-03T18:47:52.091Z,48.54
2022-08-03T18:50:34.065Z,48.67
2022-08-03T18:53:16.442Z,49.95
2022-08-03T18:56:14.544Z,51.47
2022-08-03T18:58:48.064Z,52.04
2022-08-03T19:02:00.611Z,52.80
2022-08-03T19:04:38.749Z,55.05
2022-08-03T19:07:09.446Z,55.50
2022-08-03T19:09:53.041Z,54.89
2022-08-03T19:12:28.083Z,56.23
2022-08-03T19:15:01.450Z,55.65
2022-08-03T19:17:32.575Z,55.54
2022-08-03T19:20:03.189Z,55.89
2022-08-03T19:22:31.543Z,56.32
2022-08-03T19:25:01.327Z,56.84
2022-08-03T19:27:32.103Z,57.98
2022-08-03T19:30:03.894Z,58.00
2022-08-03T19:32:32.602Z,57.52
2022-08-03T19:35:00.760Z,57.50
2022-08-03T19:37:38.094Z,58.01
2022-08-03T19:40:10.711Z,57.76
2022-08-03T19:42:44.479Z,57.63
2022-08-03T19:45:15.177Z,58.14
2022-08-03T19:47:47.465Z,58.25
2022-08-03T19:50:16.365Z,58.45
2022-08-03T19:52:47.289Z,58.63
2022-08-03T19:55:15.783Z,58.26
2022-08-03T19:57:45.999Z,58.38
2022-08-03T20:00:14.015Z,58.98
2022-08-03T20:02:41.340Z,59.65
2022-08-03T20:08:01.411Z,61.18
2022-08-03T20:10:33.483Z,61.74
2022-08-03T20:13:01.751Z,61.52
2022-08-03T20:15:31.603Z,61.60
2022-08-03T20:17:59.179Z,61.74
2022-08-03T20:20:32.557Z,61.17
2022-08-03T20:23:02.112Z,62.38
2022-08-03T20:25:38.613Z,63.49
2022-08-03T20:28:13.962Z,64.64
2022-08-03T20:30:43.375Z,66.06
2022-08-03T20:33:10.074Z,67.51
2022-08-03T20:35:36.787Z,68.34
2022-08-03T20:38:03.507Z,68.77
2022-08-03T20:40:30.043Z,68.69
2022-08-03T20:42:57.292Z,69.00
2022-08-03T20:45:58.225Z,70.03
2022-08-03T20:48:10.587Z,70.34
2022-08-03T20:50:40.543Z,71.38
2022-08-03T20:53:10.008Z,71.34
2022-08-03T20:55:53.878Z,71.28
2022-08-03T20:58:25.662Z,71.38
2022-08-03T21:00:54.378Z,71.23
2022-08-03T21:03:20.883Z,72.07
2022-08-03T21:05:51.864Z,72.61
2022-08-03T21:08:22.367Z,73.30
2022-08-03T21:10:50.081Z,73.46
2022-08-03T21:13:03.419Z,60.69
2022-08-03T21:13:42.882Z,72.74
2022-08-03T21:16:15.061Z,73.25
2022-08-03T21:18:48.427Z,73.77
2022-08-03T21:21:17.561Z,73.95
2022-08-03T21:23:48.371Z,74.12
2022-08-03T21:26:17.172Z,74.15
2022-08-03T21:28:46.781Z,73.70
2022-08-03T21:31:14.879Z,73.42
2022-08-03T21:33:56.691Z,73.42
2022-08-03T21:36:24.917Z,74.63
2022-08-03T21:38:56.357Z,75.89
2022-08-03T21:41:23.868Z,76.34
2022-08-03T21:43:50.340Z,76.89
2022-08-03T21:46:19.001Z,76.22
2022-08-03T21:48:48.059Z,75.53
2022-08-03T21:51:18.384Z,74.84
2022-08-03T21:54:03.425Z,75.18
2022-08-03T21:56:42.410Z,74.41
2022-08-03T21:59:16.903Z,75.13
2022-08-03T22:01:48.800Z,75.92
2022-08-03T22:04:53.407Z,77.84
2022-08-03T22:07:07.442Z,77.99
2022-08-03T22:09:35.286Z,77.46
2022-08-03T22:12:01.812Z,76.73
2022-08-03T22:14:29.018Z,75.92
2022-08-03T22:16:56.288Z,75.87
2022-08-03T22:19:22.865Z,75.57
2022-08-03T22:21:49.965Z,75.55
2022-08-03T22:24:23.991Z,75.92
2022-08-03T22:27:09.674Z,76.31
2022-08-03T22:29:37.716Z,76.37
2022-08-03T22:32:04.342Z,76.62
2022-08-03T22:34:31.117Z,76.39
2022-08-03T22:37:03.047Z,77.23
2022-08-03T22:39:30.086Z,78.59
2022-08-03T22:41:58.917Z,79.49
2022-08-03T22:44:26.842Z,79.50
2022-08-03T22:46:53.576Z,79.20
2022-08-03T22:49:20.721Z,79.15
2022-08-03T22:51:47.638Z,79.33
2022-08-03T22:54:14.985Z,79.93
2022-08-03T22:56:41.873Z,80.81
2022-08-03T22:59:40.598Z,81.58
2022-08-03T23:01:59.178Z,81.73
2022-08-03T23:04:26.211Z,82.38
2022-08-03T23:06:56.492Z,83.39
2022-08-03T23:09:24.249Z,84.46
2022-08-03T23:11:53.476Z,85.40
2022-08-03T23:14:22.384Z,85.97
2022-08-03T23:16:53.586Z,86.25
2022-08-03T23:19:25.327Z,86.07
2022-08-03T23:22:02.469Z,85.99
2022-08-03T23:24:30.500Z,86.46
2022-08-03T23:26:58.186Z,86.32
2022-08-03T23:29:26.274Z,86.02
2022-08-03T23:31:53.693Z,85.37
2022-08-03T23:34:41.596Z,85.55
2022-08-03T23:37:12.869Z,85.46
2022-08-03T23:39:40.388Z,85.60
2022-08-03T23:42:07.059Z,85.58
2022-08-03T23:44:34.575Z,85.97
2022-08-03T23:47:01.085Z,86.42
2022-08-03T23:49:27.624Z,85.65
2022-08-03T23:52:10.452Z,85.36
2022-08-03T23:54:52.477Z,85.50
2022-08-03T23:57:37.516Z,85.83
